Results by/Résultats par Info:[email protected] Phone: (613)260-0994
  

                                     K-TOWN TRIATHLON

                                  Sunday August 5th, 2001
                           Confederation Park, Kingston, Ontario

                         Overall Results - Short Course Triathlon

  -----FINAL----- ----------------------- ------------ -------------------- ----            750m                        30 km                   7.2 km
                                                       Category                     --------SWIM----------    ----------BIKE--------    ---------RUN----------
    Pos     Time  Name                    City         Plc/Total Category     #      Cat  Ovr  Time  /100m     Cat Ovr Time  km/hr      Cat  Ovr  Time     km
  ------  ------- ----------------------- ------------ -------------------- ----    ----------------------    ----------------------    ----------------------
    1     1:29:01 Sean Bechtel            Caledon Vill   1/1   Elite Men       4    1      1   10:47  1:27    1      7   50:37  35.6     1      2   27:38  3:51 
    2     1:31:54 Gary Hutchinson         Brampton       1/32  M30 - 34       42    2     13   13:49  1:51    3      6   50:34  35.6     1      1   27:33  3:50 
    3     1:32:45 Martin Raymond          Gloucester     1/34  M35 - 39      405    1      3   12:27  1:40    3     11   51:34  34.9     1      4   28:45  4:00 
    4     1:33:09 Brock Davis             Brockville     2/32  M30 - 34      317    1      7   13:10  1:46    1      1   49:37  36.3     2      8   30:23  4:14 
    5     1:34:04 Paul Turner             Ottawa         1/33  M40 - 44      276    2     18   14:17  1:55    2     13   51:46  34.8     1      3   28:02  3:54 
    6     1:34:17 Ron Webb                Ottawa         1/15  M45 - 49      120    3     34   15:21  2:03    1      2   49:42  36.2     1      5   29:14  4:04 
    7     1:36:42 Lauren Groves           Kingston       1/1   Elite Women     3    1      2   12:03  1:37    1     43   54:33  33.0     1      7   30:06  4:11 
    8     1:37:16 Graeme Smith            Kingston       2/34  M35 - 39      326    2      9   13:43  1:50    2      9   51:16  35.1     4     19   32:18  4:30 
    9     1:37:23 Todd Hughson            Toronto        3/34  M35 - 39      330    4     22   14:25  1:56    5     24   53:00  34.0     2      6   29:59  4:10 
   10     1:37:39 Russ Downer             Elko           1/31  M25 - 29       71    1     10   13:44  1:50    4     27   53:21  33.8     1      9   30:35  4:15 
   11     1:37:56 Dierdre Douglas         Toronto        1/31  W25 - 29      502    4     21   14:23  1:55    1     17   52:07  34.5     1     13   31:27  4:23 
   12     1:38:32 Casey MacLeod           Kingston       2/31  M25 - 29      392    3     53   16:14  2:10    1     10   51:27  35.0     2     11   30:52  4:18 
   13     1:38:43 Sandy Schwab            Kingston       4/34  M35 - 39      523    3     20   14:22  1:55    1      5   50:11  35.9     8     50   34:11  4:45 
   14     1:40:23 Caroline Amyot          Perth          1/15  W20 - 24      485    1     12   13:48  1:51    1     26   53:15  33.8     2     35   33:21  4:38 
   15     1:40:46 Jeff Lowthian           Kanata         3/32  M30 - 34      137    9     78   17:28  2:20    2      3   50:00  36.0     11    32   33:19  4:38 
   16     1:41:15 Stephen Hinton          Kingston       2/33  M40 - 44       53    4     28   14:47  1:59    4     20   52:41  34.2     3     40   33:48  4:42 
   17     1:41:28 Kevin Hall              Kingston       3/33  M40 - 44       75    7     38   15:31  2:05    3     14   51:48  34.8     4     49   34:10  4:45 
   18     1:41:32 Erin Hawes              Kingston       1/5   Junior Women  464    1      6   12:48  1:43    1     51   54:57  32.8     1     39   33:47  4:42 
   19     1:41:33 Ken Beswitherick        Powassan       1/5   M55 - 59       49    1     32   15:20  2:03    1     21   52:51  34.1     1     37   33:22  4:39 
   20     1:41:33 Janine Rockel           Kingston       2/31  W25 - 29      396    8     46   15:45  2:06    3     38   54:17  33.2     2     14   31:32  4:23 
   21     1:41:49 Erin Down               Ottawa         3/31  W25 - 29      497    7     44   15:40  2:06    2     33   53:48  33.5     4     20   32:21  4:30 
   22     1:42:04 Bryon Slade             Missisauga     4/33  M40 - 44      323    1      8   13:30  1:48    9     48   54:48  32.9     2     38   33:47  4:42 
   23     1:42:33 Brad Hilton             Windsor        3/31  M25 - 29      348    2     33   15:21  2:03    6     34   53:52  33.4     7     34   33:20  4:38 
   24     1:42:34 Ian Joiner              Ottawa         4/32  M30 - 34       66    5     49   15:53  2:07    12    49   54:55  32.8     4     15   31:48  4:25 
   25     1:43:12 Aaron Campbell          Kingston       5/32  M30 - 34      389    10    81   17:32  2:21    9     40   54:26  33.1     3     12   31:15  4:21 
   26     1:43:34 Mark Montgomery         Toronto        6/32  M30 - 34      489    8     58   16:23  2:12    6     18   52:12  34.5     16    64   35:00  4:52 
   27     1:43:43 Brad Smith              Ottawa         7/32  M30 - 34      532    7     52   16:00  2:08    10    41   54:29  33.0     10    30   33:15  4:38 
   28     1:44:11 Luis Madrigal           London         8/32  M30 - 34      214    3     40   15:33  2:05    15    68   56:39  31.8     5     18   32:00  4:27 
   29     1:44:19 John Fee                Ottawa         4/31  M25 - 29      260    11    96   17:55  2:24    3     16   51:52  34.7     8     56   34:32  4:48 
   30     1:44:20 Michael Slade           Mississauga    1/5   Junior Men    304    1      5   12:31  1:41    1     59   55:50  32.2     3     88   36:00  5:00 
   31     1:44:24 Jim Murray              Gananoque      2/15  M45 - 49      498    6     77   17:23  2:19    3     25   53:07  33.9     3     42   33:55  4:43 
   32     1:44:24 Ray Stockermans         Amhersview     5/34  M35 - 39       86    18   135   19:24  2:36    4     19   52:28  34.3     5     22   32:32  4:32 
   33     1:44:29 Emily Sinclair          Kingston       4/31  W25 - 29      338    2     14   13:53  1:51    9    104   58:41  30.7     3     17   31:56  4:26 
   34     1:44:30 Michael Teske           Aylmer         6/34  M35 - 39      341    5     54   16:17  2:11    6     28   53:27  33.7     9     57   34:46  4:50 
   35     1:44:32 Brent Weller            Kingston       9/32  M30 - 34      495    12    97   17:56  2:24    5     12   51:44  34.8     15    61   34:53  4:51 
   36     1:44:37 Bill Hazlett            Rochester     10/32  M30 - 34      439    6     51   15:54  2:08    14    58   55:33  32.4     9     27   33:11  4:37 
   37     1:44:48 William Cooper          Kingston       5/33  M40 - 44      108    6     37   15:28  2:04    10    50   54:55  32.8     5     55   34:26  4:47 
   38     1:45:16 Brian O'Grady           Brockville    11/32  M30 - 34      243    21   150   20:05  2:41    4      8   50:56  35.4     13    52   34:16  4:46 
   39     1:45:21 Zack Crafts             Parry Sound   12/32  M30 - 34      117    17   119   18:41  2:30    7     29   53:33  33.6     8     26   33:08  4:37 
   40     1:45:35 Andrea McGill           Kingston       1/23  W30 - 34      461    1     16   13:58  1:52    1     55   55:27  32.5     2     91   36:10  5:02 
   41     1:45:39 Alain Dube              Ottawa         1/4   M20 - 24      191    1     45   15:43  2:06    1     37   54:12  33.2     2     82   35:45  4:58 
   42     1:45:41 Craig D Abbott          Cold Lake     13/32  M30 - 34      228    16   117   18:37  2:29    8     36   54:05  33.3     7     25   32:59  4:35 
   43     1:46:13 Natasha Elliott         RR 5 Bellevi   2/15  W20 - 24      369    3     35   15:24  2:04    2     81   57:32  31.3     1     31   33:18  4:38 
   44     1:46:34 Don Cowin               Bath           3/15  M45 - 49       39    4     43   15:40  2:06    4     60   55:51  32.2     6     66   35:04  4:53 
   45     1:46:39 Eric Lindenberg         Belleville     4/15  M45 - 49      409    9    165   20:28  2:44    2     23   52:52  34.1     2     33   33:20  4:38 
   46     1:46:45 Rebecca Glennie         Toronto        5/31  W25 - 29      472    1      4   12:29  1:40    7     93   58:11  30.9     8     90   36:06  5:01 
   47     1:46:49 Cathy Bodnoff           Ottawa         1/8   W40 - 44      480    2     74   17:16  2:19    1     57   55:31  32.4     1     47   34:03  4:44 
   48     1:46:52 Martin Guyon            Kingston      14/32  M30 - 34      391    15   115   18:33  2:29    13    56   55:29  32.5     6     24   32:51  4:34 
   49     1:47:04 Kevin Maier             Manilus        5/15  M45 - 49      269    2     27   14:36  1:57    7     92   58:09  31.0     4     53   34:21  4:47 
   50     1:47:05 Alastair Smith          Guelph         2/4   M20 - 24      114    2     72   17:09  2:18    2     62   56:02  32.1     1     43   33:55  4:43 
   51     1:47:13 Gerry Hanley            Napanee        7/34  M35 - 39      141    7     66   16:51  2:15    9     54   55:13  32.6     11    68   35:09  4:53 
   52     1:47:22 Leslie Farguharson      Kingston       6/33  M40 - 44      278    3     26   14:35  1:57    7     32   53:47  33.5     18   145   39:01  5:26 
   53     1:47:31 Saskia Harvey           Kingston       6/31  W25 - 29      125    13    63   16:48  2:15    4     39   54:19  33.1     9     95   36:25  5:04 
   54     1:47:32 Tim Dillon              Nepean         7/33  M40 - 44      226    5     29   14:53  1:59    12    74   57:09  31.5     8     73   35:31  4:56 
   55     1:47:41 Colin Zammit            Kingston       5/31  M25 - 29      165    5     60   16:29  2:12    11    87   57:58  31.1     6     29   33:15  4:38 
   56     1:47:45 Scott Vowles            Kingston       6/31  M25 - 29      200    4     56   16:20  2:11    9     67   56:33  31.8     9     60   34:53  4:51 
   57     1:47:46 Dwight Bronson          Oshawa         8/33  M40 - 44      314    9     59   16:25  2:12    5     22   52:51  34.1     17   129   38:30  5:21 
   58     1:48:05 Simon Baron             Kingston       7/31  M25 - 29      507    10    92   17:51  2:23    5     30   53:41  33.5     14    96   36:34  5:05 
   59     1:48:09 Christopher Rubeck      Geneseo       15/32  M30 - 34      253    18   138   19:27  2:36    11    46   54:43  32.9     12    44   34:00  4:44 
   60     1:48:28 Beth Bissell            Richmond Hil   7/31  W25 - 29      350    6     31   15:13  2:02    5     47   54:45  32.9     14   130   38:31  5:21 
   61     1:48:30 Philip Troop            Kingston       2/5   Junior Men    354    3    116   18:34  2:29    2     80   57:29  31.3     1     21   32:27  4:31 
   62     1:48:31 Paul Danks              Ottawa         8/31  M25 - 29      487    9     75   17:22  2:19    14   101   58:29  30.8     4     23   32:42  4:33 
   63     1:48:47 Carlos Gonzales         Ajax           9/33  M40 - 44      428    15   113   18:31  2:29    8     45   54:39  32.9     9     78   35:38  4:57 
   64     1:48:53 Peter Sims              Ottawa         1/9   M50 - 54       46    2    103   18:15  2:26    2     70   56:49  31.7     2     41   33:49  4:42 
   65     1:49:31 Richard Cadman          Battersea     10/33  M40 - 44      112    13    94   17:52  2:23    6     31   53:41  33.5     16   125   37:59  5:17 
   66     1:49:34 Stephen Scott           Kingston       8/34  M35 - 39      490    14   114   18:32  2:29    20   136 1:00:14  29.9     3     10   30:49  4:17 
   67     1:49:52 Matthew Slade           Mississauga    3/5   Junior Men    313    2     11   13:46  1:51    3    152 1:01:07  29.5     2     63   35:00  4:52 
   68     1:49:56 Terry O'Brien           Kingston       6/15  M45 - 49      417    1     17   14:17  1:55    5     65   56:16  32.0     12   150   39:24  5:29 
   69     1:49:58 Jeff McCartney          Toronto       11/33  M40 - 44      248    14   101   18:09  2:26    11    63   56:08  32.1     10    80   35:41  4:58 
   70     1:50:10 Laurie Ross             Battersea      1/23  W35 - 39      113    1     48   15:51  2:07    1     69   56:48  31.7     4    117   37:32  5:13 
   71     1:50:12 Jonathon Walker         Kingston       9/31  M25 - 29      517    16   142   19:45  2:38    2     15   51:51  34.7     19   133   38:37  5:22 
   72     1:50:23 Mike Davidson           Ottawa        10/31  M25 - 29      400    19   162   20:23  2:43    8     52   55:07  32.7     10    62   34:55  4:51 
   73     1:50:25 Lauren Wells            Holland Land   2/5   Junior Women  222    2     23   14:27  1:56    3     75   57:10  31.5     5    138   38:48  5:24 
   74     1:50:55 Corry Burke             Ottawa        16/32  M30 - 34      416    4     47   15:46  2:07    19    90   58:01  31.0     21   107   37:08  5:10 
   75     1:50:59 Amy West                Toronto        8/31  W25 - 29      306    5     25   14:34  1:57    6     85   57:36  31.3     16   139   38:51  5:24 
   76     1:51:13 Kerry Rocheleau         Ottawa         9/31  W25 - 29      236    10    55   16:19  2:11    11   125   59:34  30.2     7     71   35:21  4:55 
   77     1:51:20 Geoff Lockwood          Kingston       9/34  M35 - 39      157    10    98   17:56  2:24    19   114   59:18  30.4     7     48   34:06  4:45 
   78     1:51:21 Ross MacDonald          Kanata        10/34  M35 - 39      415    19   137   19:26  2:36    11    66   56:21  32.0     12    76   35:35  4:57 
   79     1:51:37 Jennifer Brown          Ottawa        10/31  W25 - 29       67    3     15   13:54  1:52    17   177 1:03:43  28.3     5     45   34:00  4:44 
   80     1:52:07 Natalie Kennie          Toronto        2/23  W30 - 34      351    2     19   14:22  1:55    2     94   58:16  30.9     8    153   39:30  5:30 
   81     1:52:10 Geoff Williams          Ottawa        12/33  M40 - 44      289    11    68   16:57  2:16    13    78   57:22  31.4     14   121   37:51  5:16 
   82     1:52:17 Heather Logan           Napanee        3/5   Junior Women  412    5    163   20:24  2:44    2     64   56:12  32.0     3     81   35:43  4:58 
   83     1:52:19 David McDonald          Kingston      11/34  M35 - 39      488    12   107   18:24  2:28    17   109   59:04  30.5     10    59   34:52  4:51 
   84     1:52:22 David Kirkland          Kingston      11/31  M25 - 29      441    7     69   17:05  2:17    18   118   59:21  30.3     12    87   35:57  5:00 
   85     1:52:22 J.J. Johnson            Kingston      12/31  M25 - 29       92    14   140   19:32  2:37    23   151 1:01:02  29.5     3     16   31:49  4:26 
   86     1:52:27 Tony Cimellaro          Kingston      17/32  M30 - 34      493    22   169   20:37  2:45    16    72   57:05  31.5     14    58   34:47  4:50 
   87     1:52:48 John Benson             Windsor       12/34  M35 - 39      460    9     93   17:52  2:23    16   108   59:03  30.5     13    85   35:55  5:00 
   88     1:52:51 Jennifer Beecker        Ottawa        11/31  W25 - 29      197    9     50   15:53  2:08    8    103   58:40  30.7     13   127   38:19  5:20 
   89     1:53:12 Magi Scallion           Kingston       4/5   Junior Women  154    4    121   18:47  2:31    4    135 1:00:13  29.9     2     51   34:13  4:46 
   90     1:53:18 Kate LANGSTAFF          London        12/31  W25 - 29       87    17    95   17:54  2:24    14   133 1:00:06  30.0     6     70   35:18  4:55 
   91     1:53:21 David Andrew            Kingston       2/9   M50 - 54      419    5    210   22:25  3:00    3     84   57:35  31.3     1     36   33:22  4:38 
   92     1:53:21 Chris MacIntyre         Kingston      13/31  M25 - 29      483    12   108   18:24  2:28    10    82   57:32  31.3     17   115   37:26  5:12 
   93     1:53:22 Jeff Ponke              Kingston      14/31  M25 - 29      203    21   180   20:57  2:48    15   111   59:14  30.4     5     28   33:12  4:37 
   94     1:53:22 Scott Hagerty           London        13/34  M35 - 39      457    23   151   20:08  2:41    10    61   55:54  32.2     16   113   37:22  5:12 
   95     1:53:25 Gregory Murphy          Kingston      14/34  M35 - 39      378    26   182   20:59  2:48    7     35   53:59  33.4     17   128   38:27  5:21 
   96     1:53:26 Tim McLean              Toronto       15/31  M25 - 29      242    13   134   19:23  2:36    7     42   54:31  33.0     21   154   39:32  5:30 
   97     1:53:30 Natalie Daigle          Kingston       2/23  W35 - 39       79    4     83   17:33  2:21    2    102   58:30  30.8     3    116   37:28  5:13 
   98     1:53:37 David Mark              Kingston      15/34  M35 - 39      336    25   160   20:19  2:43    18   113   59:18  30.4     6     46   34:01  4:44 
   99     1:54:24 David Stevenson         Oakville      16/31  M25 - 29      205    8     73   17:13  2:18    16   112   59:14  30.4     18   124   37:57  5:17 
  100     1:54:31 Linda Martin            Kanata         3/23  W35 - 39      370    5     88   17:46  2:23    3    127   59:41  30.2     2    105   37:05  5:09 
  101     1:54:36 Michael Grant           Toronto       18/32  M30 - 34      204    25   212   22:26  3:00    17    73   57:06  31.5     17    67   35:05  4:53 
  102     1:54:38 Brian Farnell           Inverary       7/15  M45 - 49       77    12   200   22:06  2:57    6     91   58:09  31.0     5     54   34:25  4:47 
  103     1:55:07 Jeff Musson             Trenton       16/34  M35 - 39       85    11   104   18:18  2:27    8     44   54:37  33.0     29   193   42:14  5:52 
  104     1:55:11 Matt Weissbach          Kingston      17/31  M25 - 29      444    17   143   19:47  2:39    12    89   58:01  31.0     16   114   37:24  5:12 
  105     1:55:15 Wendy Flecker           Kingston       4/23  W35 - 39      274    6     99   17:58  2:24    5    140 1:00:26  29.8     1    103   36:52  5:08 
  106     1:55:19 Ed Brand                Kingston       3/9   M50 - 54      309    1     84   17:38  2:21    5    134 1:00:08  29.9     3    118   37:35  5:14 
  107     1:55:22 Graham McGee            Whitby        13/33  M40 - 44      249    31   278   29:00  3:52    1      4   50:05  36.0     11    94   36:18  5:03 
  108     1:55:43 Jody Martin             Kingston       3/15  W20 - 24      264    4     42   15:38  2:06    3    100   58:26  30.8     8    182   41:40  5:48 
  109     1:55:46 Susanne Russell         Kingston       4/15  W20 - 24      265    2     24   14:33  1:57    7    187 1:04:01  28.1     4    109   37:14  5:11 
  110     1:55:54 Scott Gavura            Toronto       19/32  M30 - 34      302    14   110   18:25  2:28    23   162 1:01:57  29.1     18    75   35:33  4:57 
  111     1:55:55 Ann Marie Brady         Ottawa         2/8   W40 - 44      463    6    193   21:28  2:52    2    115   59:19  30.4     2     69   35:09  4:53 
  112     1:56:06 William R. Greer        Perth         14/33  M40 - 44      299    24   179   20:54  2:48    19   128   59:48  30.1     7     72   35:24  4:55 
  113     1:56:11 Stephen Drummond        Kingston      17/34  M35 - 39      111    21   146   20:00  2:40    12    71   56:55  31.6     21   149   39:17  5:28 
  114     1:56:15 Caroline Stone          Ottawa        13/31  W25 - 29      189    11    57   16:21  2:11    12   126   59:40  30.2     19   164   40:15  5:36 
  115     1:56:19 Sean Byron              Kingston      18/34  M35 - 39      403    6     65   16:50  2:15    14    79   57:25  31.4     28   192   42:05  5:51 
  116     1:56:22 Agathe Nicholson        Kingston       3/8   W40 - 44      268    1     41   15:33  2:05    4    165 1:02:10  29.0     4    134   38:40  5:23 
  117     1:56:27 Cynthia Phelan          Montreal       5/15  W20 - 24      259    8    184   21:02  2:49    4    121   59:29  30.3     3     86   35:56  5:00 
  118     1:56:28 David Robinson          Missisauga     8/15  M45 - 49      401    8    129   19:10  2:34    10   105   58:44  30.7     11   132   38:34  5:22 
  119     1:56:30 Paul B. McAneney        Ottawa        20/32  M30 - 34      230    20   147   20:01  2:41    18    77   57:21  31.4     24   147   39:08  5:27 
  120     1:56:47 Randy Fowler            Bath          15/33  M40 - 44       81    22   167   20:30  2:44    17    98   58:25  30.8     15   122   37:53  5:16 
  121     1:56:57 Stephanie Spriston      Ottawa         3/23  W30 - 34       32    5     87   17:43  2:22    9    168 1:02:16  28.9     5    104   36:58  5:08 
  122     1:57:01 Lesley Cassidy          Ottawa         4/23  W30 - 34      250    8    128   19:07  2:33    5    145 1:00:38  29.7     6    111   37:16  5:11 
  123     1:57:05 Bruce MacNaughton       Kingston       9/15  M45 - 49      458    5     67   16:54  2:16    11   123   59:32  30.2     13   169   40:39  5:39 
  124     1:57:12 Chad Pretsell           Kingston      18/31  M25 - 29      195    23   198   22:00  2:56    17   117   59:20  30.3     11    84   35:52  4:59 
  125     1:57:16 Dave Vesnaver           Kingston      19/34  M35 - 39      521    31   213   22:32  3:01    15    88   58:00  31.0     15   100   36:45  5:07 
  126     1:57:25 Andrea Hartmann         Kendal        14/31  W25 - 29      407    18   100   18:06  2:25    15   167 1:02:12  28.9     10   106   37:08  5:10 
  127     1:57:29 Andrew Fraser           Ottawa        20/34  M35 - 39      297    20   145   19:57  2:40    23   148 1:00:49  29.6     14    99   36:44  5:07 
  128     1:57:41 Bonny Costello          Almonte        5/23  W30 - 34      322    10   176   20:49  2:47    3    110   59:14  30.4     7    119   37:39  5:14 
  129     1:57:42 Stephane Chapados       Ottawa        21/34  M35 - 39      459    8     90   17:49  2:23    21   141 1:00:29  29.8     22   151   39:24  5:29 
  130     1:57:50 Rick Baird              Ottawa        16/33  M40 - 44      474    8     39   15:32  2:05    23   149 1:00:49  29.6     20   177   41:30  5:46 
  131     1:58:00 Joe Bodendistel         Brockville    17/33  M40 - 44      339    17   122   18:48  2:31    14    83   57:34  31.3     21   181   41:39  5:48 
  132     1:58:12 Dan Scott               Kingston      18/33  M40 - 44      156    18   130   19:15  2:34    26   183 1:03:56  28.2     6     65   35:02  4:52 
  133     1:58:19 Duncan Beveridge        Halifax       10/15  M45 - 49      133    10   168   20:31  2:45    12   164 1:02:10  29.0     8     79   35:39  4:58 
  134     1:58:20 Barry Campbell          RR1 Verona    19/33  M40 - 44      342    16   118   18:39  2:30    15    86   57:45  31.2     22   187   41:56  5:50 
  135     1:58:21 Robert Whiteside        Kingston      19/31  M25 - 29      374    24   214   22:36  3:01    21   124   59:33  30.2     13    93   36:13  5:02 
  136     1:58:22 Mark Telesnicki         Oakville      22/34  M35 - 39      434    15   120   18:42  2:30    13    76   57:16  31.4     30   195   42:26  5:54 
  137     1:58:23 Julie Chene             Ottawa        15/31  W25 - 29       99    15    86   17:39  2:22    16   169 1:02:35  28.8     12   126   38:10  5:19 
  138     1:58:32 Joan Tranmer            Kingston       1/4   W45 - 49      270    1     71   17:09  2:18    1    106   58:53  30.6     1    197   42:31  5:55 
  139     1:58:43 Janice Kwon             Toronto        6/23  W30 - 34      337    15   203   22:10  2:58    4    129   59:51  30.1     3     98   36:43  5:06 
  140     1:59:01 Paul Sandusky           Toronto       20/31  M25 - 29      519    6     61   16:32  2:13    25   178 1:03:45  28.2     20   136   38:45  5:23 
  141     1:59:07 Aldo Arcangeli          Boucherville  21/32  M30 - 34      365    19   144   19:56  2:40    20   137 1:00:14  29.9     22   143   38:58  5:25 
  142     1:59:09 Mark Frederick          Kingston      20/33  M40 - 44       96    21   161   20:21  2:43    25   161 1:01:36  29.2     13   108   37:12  5:10 
  143     1:59:12 Jean Powers             Kingston       4/8   W40 - 44      240    4    109   18:25  2:28    3    153 1:01:08  29.5     5    158   39:40  5:31 
  144     1:59:29 Colleen Webster         Scarborough   16/31  W25 - 29       47    25   221   23:19  3:07    10   107   58:55  30.6     11   110   37:16  5:11 
  145     1:59:39 Russell Boyce           Kingston      21/33  M40 - 44      234    10    64   16:49  2:15    20   132 1:00:04  30.0     24   202   42:47  5:57 
  146     1:59:53 Monica Kvas             Ottawa         5/5   Junior Women  325    3     36   15:25  2:04    5    206 1:05:46  27.4     4    135   38:43  5:23 
  147     1:59:59 Carolyn Deeth           Toronto        5/8   W40 - 44      131    3    106   18:20  2:27    7    212 1:06:04  27.3     3     77   35:37  4:57 
  148     2:00:17 Annie Ginn              Kingston       6/15  W20 - 24       58    5    152   20:10  2:42    5    144 1:00:34  29.7     6    156   39:35  5:30 
  149     2:00:43 Andrew Niska            Ottawa        23/34  M35 - 39      492    27   186   21:10  2:50    22   146 1:00:42  29.7     18   140   38:51  5:24 
  150     2:00:45 Justin C. Beveridge     Halifax        4/5   Junior Men    134    4    158   20:18  2:43    4    176 1:03:37  28.3     4    102   36:51  5:07 
  151     2:00:46 Carol Ravnaas           Brockville     5/23  W35 - 39      359    8    136   19:25  2:36    4    139 1:00:23  29.8     6    172   40:59  5:42 
  152     2:00:51 Marc Moreau             Kingston      22/33  M40 - 44      261    23   170   20:37  2:45    18   116   59:19  30.3     19   171   40:55  5:41 
  153     2:01:17 Rick Cathrae            Belleville    11/15  M45 - 49       98    15   247   24:59  3:20    9     99   58:26  30.8     10   123   37:54  5:16 
  154     2:01:19 Karen Gordon            London        17/31  W25 - 29      469    16    89   17:48  2:23    19   189 1:04:07  28.1     17   152   39:25  5:29 
  155     2:01:31 Steve Bickerton         Kingston      21/31  M25 - 29       93    15   141   19:35  2:37    13    95   58:17  30.9     25   213   43:40  6:04 
  156     2:01:33 Mina D'Souza            Beaconsfield   7/15  W20 - 24      447    6    174   20:45  2:46    6    147 1:00:47  29.6     7    162   40:02  5:34 
  157     2:01:38 Wilma Pettingill        Kingston       7/23  W30 - 34      290    7    125   18:51  2:31    6    157 1:01:13  29.4     14   178   41:35  5:47 
  158     2:01:46 Steve Sills             Komoka        24/34  M35 - 39      329    29   194   21:29  2:52    25   158 1:01:13  29.4     20   146   39:06  5:26 
  159     2:01:48 Walter Noble            Ottawa        25/34  M35 - 39      413    16   127   19:05  2:33    29   181 1:03:51  28.2     19   141   38:53  5:25 
  160     2:01:50 Larry Deighton          Oakville      26/34  M35 - 39      518    17   131   19:17  2:35    24   156 1:01:11  29.4     26   174   41:23  5:45 
  161     2:01:55 Michael Rooney          Kingston      22/32  M30 - 34      178    29   242   24:30  3:16    22   159 1:01:15  29.4     20    92   36:10  5:02 
  162     2:01:58 Stephen Boston          Kingston      23/33  M40 - 44      168    28   249   25:02  3:21    21   138 1:00:20  29.8     12    97   36:37  5:06 
  163     2:02:09 Mark Waldron            Kingston      27/34  M35 - 39      478    13   111   18:27  2:28    28   174 1:03:13  28.5     24   167   40:30  5:38 
  164     2:02:10 Kenneth Ma              Ottawa        22/31  M25 - 29      237    18   159   20:18  2:43    22   131   59:58  30.0     23   186   41:55  5:50 
  165     2:02:19 Jim Florence            Kingston      23/32  M30 - 34      311    11    85   17:38  2:22    26   195 1:05:05  27.7     26   157   39:37  5:31 
  166     2:02:34 Karen Briard            Ajax           6/23  W35 - 39      321    3     82   17:32  2:21    9    184 1:03:58  28.1     7    173   41:05  5:43 
  167     2:02:57 Rick Melanson           Kingston      24/32  M30 - 34      179    26   215   22:40  3:02    21   155 1:01:10  29.4     25   148   39:08  5:27 
  168     2:03:06 Dieter P.C. Baumgardt   Brampton      12/15  M45 - 49      406    13   208   22:19  2:59    8     97   58:24  30.8     14   194   42:23  5:54 
  169     2:03:36 Sue McIver              Kingston       7/23  W35 - 39      180    12   156   20:13  2:42    6    142 1:00:29  29.8     9    205   42:55  5:58 
  170     2:03:40 Jim Elyot               Kingston      24/33  M40 - 44      198    25   204   22:10  2:58    16    96   58:20  30.9     26   206   43:11  6:00 
  171     2:03:40 Chantal Mercier         Ottawa        18/31  W25 - 29      324    20   133   19:22  2:35    18   186 1:03:59  28.1     20   165   40:21  5:37 
  172     2:03:47 Holly Meyer             Brownsburg     8/23  W30 - 34      183    4     76   17:22  2:19    14   207 1:05:46  27.4     12   170   40:40  5:39 
  173     2:03:51 Michael Crowe           Toronto       25/33  M40 - 44      347    19   132   19:20  2:35    24   150 1:00:52  29.6     28   212   43:40  6:04 
  174     2:04:12 Tracy Walsh             Toronto        8/23  W35 - 39      318    9    139   19:29  2:36    12   208 1:05:50  27.3     5    142   38:54  5:25 
  175     2:04:27 Peter WONG              Toronto       23/31  M25 - 29      547    30   271   27:41  3:42    20   120   59:29  30.3     15   112   37:18  5:11 
  176     2:04:28 Anne Marie Van Raay     Kingston       9/23  W35 - 39      522    11   154   20:11  2:42    7    170 1:02:37  28.7     8    183   41:40  5:48 
  177     2:04:33 Laurie Strano           Toronto       19/31  W25 - 29      494    12    62   16:45  2:14    21   209 1:05:51  27.3     24   190   41:59  5:50 
  178     2:04:47 Andrew Smillie          Kingston      26/33  M40 - 44      175    12    70   17:07  2:17    27   199 1:05:14  27.6     23   196   42:28  5:54 
  179     2:04:51 Sarah Byers             Kingston       9/23  W30 - 34      160    20   238   24:16  3:15    10   179 1:03:47  28.2     4    101   36:48  5:07 
  180     2:05:02 Kira Zoellner           Kingston       8/15  W20 - 24      164    7    183   21:01  2:49    9    203 1:05:29  27.5     5    131   38:33  5:22 
  181     2:05:36 Kelly Cranston          Belleville    20/31  W25 - 29      327    27   234   24:04  3:13    13   130   59:56  30.0     21   180   41:36  5:47 
  182     2:05:56 David Whitely           Ottawa        28/34  M35 - 39      286    24   157   20:15  2:42    30   200 1:05:14  27.6     23   166   40:28  5:38 
  183     2:06:11 Adriana Ross            Ottawa        10/23  W30 - 34      531    6     91   17:50  2:23    13   205 1:05:43  27.4     15   199   42:38  5:56 
  184     2:06:13 John Jessome            Kingston      25/32  M30 - 34      355    31   266   26:49  3:35    24   175 1:03:20  28.4     19    89   36:04  5:01 
  185     2:06:57 Catharine Johnston      Toronto        2/4   W45 - 49      207    2    112   18:30  2:28    2    180 1:03:49  28.2     3    223   44:40  6:13 
  186     2:06:59 Stacey Berdan           Tweed         11/23  W30 - 34      190    12   185   21:09  2:50    15   213 1:06:07  27.2     9    159   39:44  5:32 
  187     2:07:13 Peter Kaiser            Petterlaw     13/15  M45 - 49      319    14   209   22:23  3:00    15   245 1:09:19  26.0     7     74   35:32  4:57 
  188     2:07:18 Dan Poenaru             Kingston      27/33  M40 - 44       64    26   232   23:58  3:12    22   143 1:00:33  29.7     25   203   42:48  5:57 
  189     2:07:23 Scott MacKinnon         Oakville      29/34  M35 - 39      505    22   148   20:02  2:41    27   172 1:02:52  28.6     32   221   44:30  6:11 
  190     2:07:27 Richard Cameron         Kingston      14/15  M45 - 49       40    11   178   20:53  2:47    14   239 1:08:53  26.1     9    120   37:43  5:15 
  191     2:07:38 Irvine Francis          Cornwall       4/9   M50 - 54      146    3    173   20:42  2:46    6    154 1:01:10  29.4     6    233   45:46  6:22 
  192     2:08:01 Lisa Ann Scott          Toronto       12/23  W30 - 34      506    17   224   23:23  3:07    18   238 1:08:52  26.1     1     83   35:47  4:59 
  193     2:08:08 Terry Rickan            Ottawa        24/31  M25 - 29      285    20   171   20:39  2:46    19   119   59:28  30.3     29   248   48:02  6:41 
  194     2:08:26 Melissa Curcumelli-Rodo Toronto       13/23  W30 - 34       33    9    155   20:11  2:42    7    160 1:01:16  29.4     18   240   47:00  6:32 
  195     2:08:50 Sonya Billiard          Kingston      14/23  W30 - 34      126    18   229   23:49  3:11    12   197 1:05:09  27.6     10   160   39:53  5:33 
  196     2:09:05 Terry Hodge             Brockville    30/34  M35 - 39      173    32   217   22:47  3:03    26   166 1:02:12  28.9     31   215   44:07  6:08 
  197     2:09:05 Kathy Malkoske          Kingston      21/31  W25 - 29      263    23   206   22:15  2:58    20   194 1:05:04  27.7     22   185   41:47  5:49 
  198     2:09:06 Cindy Cowin             Bath           6/8   W40 - 44       38    5    175   20:47  2:47    6    193 1:04:50  27.8     8    211   43:30  6:03 
  199     2:10:45 Paul Fraresso           Kingston       5/9   M50 - 54      328    4    196   21:55  2:56    4    122   59:31  30.3     7    256   49:20  6:52 
  200     2:10:59 Frank Kaiser            Kingston      31/34  M35 - 39      233    28   188   21:21  2:51    32   223 1:07:43  26.6     27   188   41:57  5:50 
  201     2:11:01 Margaret Beswitherick   Powassan       1/3   W55 - 59       50    1    181   20:59  2:48    1    214 1:06:19  27.1     1    214   43:44  6:05 
  202     2:11:02 Wendy Whiteside         Kingston      22/31  W25 - 29      394    26   223   23:21  3:07    26   241 1:08:56  26.1     15   137   38:46  5:24 
  203     2:11:06 Yolande Belanger        Kingston      10/23  W35 - 39      446    7    123   18:50  2:31    13   224 1:07:59  26.5     10   218   44:17  6:10 
  204     2:11:30 Patty Pauls             Kingston      15/23  W30 - 34       89    13   191   21:25  2:52    8    163 1:02:04  29.0     19   249   48:02  6:41 
  205     2:11:49 Martin Beasse           St Laurent    25/31  M25 - 29      123    26   225   23:25  3:08    27   210 1:05:52  27.3     24   198   42:33  5:55 
  206     2:11:59 Kate Hart               Ottawa         7/8   W40 - 44      147    8    262   26:18  3:31    5    191 1:04:16  28.0     6    175   41:27  5:46 
  207     2:12:42 John Hall               Kingston       6/9   M50 - 54      399    6    222   23:20  3:07    8    211 1:06:03  27.3     5    208   43:20  6:01 
  208     2:12:47 Lorraine vanderKamp     Kingston      11/23  W35 - 39      376    2     79   17:29  2:20    8    173 1:03:02  28.6     22   271   52:17  7:16 
  209     2:13:22 Philip Blackford        Toronto       15/15  M45 - 49      132    7    105   18:19  2:27    13   182 1:03:54  28.2     15   265   51:11  7:07 
  210     2:13:48 Jeff Donaldson          Kingston      26/32  M30 - 34      153    24   197   21:58  2:56    28   232 1:08:25  26.3     28   210   43:26  6:02 
  211     2:14:02 Patrick Lynch           Kingston       7/9   M50 - 54      107    9    263   26:27  3:32    7    204 1:05:32  27.5     4    191   42:04  5:51 
  212     2:14:03 Wendy Pentland          Kingston       3/4   W45 - 49      119    3    211   22:25  3:00    3    229 1:08:17  26.4     2    209   43:22  6:02 
  213     2:14:05 Joan Shaw               Toronto       23/31  W25 - 29      499    14    80   17:31  2:21    24   221 1:07:35  26.6     28   253   49:00  6:49 
  214     2:14:09 Chris Ellenor           Kingston       3/4   M20 - 24      379    4    270   27:23  3:40    3    185 1:03:58  28.1     4    204   42:48  5:57 
  215     2:14:09 Anna Laperle            Toronto       24/31  W25 - 29       78    28   241   24:21  3:15    28   250 1:09:49  25.8     18   161   40:00  5:34 
  216     2:14:09 Eric Morrow             Toronto        4/4   M20 - 24      283    3    265   26:33  3:33    4    226 1:08:02  26.5     3    155   39:35  5:30 
  217     2:14:34 Margarita Sviajina      Kingston      16/23  W30 - 34      158    21   243   24:39  3:18    19   251 1:09:52  25.8     11   163   40:03  5:34 
  218     2:14:47 David M Ward            Owen Sound     2/5   M55 - 59      310    3    164   20:25  2:44    2    198 1:05:10  27.6     3    254   49:14  6:51 
  219     2:14:55 Sophie Grenier          Hull          25/31  W25 - 29      145    24   220   23:07  3:05    23   219 1:06:54  26.9     25   225   44:55  6:15 
  220     2:15:03 Tori Wright             Toronto       17/23  W30 - 34      520    16   216   22:43  3:02    16   222 1:07:41  26.6     16   222   44:39  6:13 
  221     2:15:18 Dan Neron               Kingston      27/32  M30 - 34      167    30   257   25:52  3:27    27   218 1:06:48  27.0     27   200   42:38  5:56 
  222     2:15:21 Kathryn Handford        Toronto        8/8   W40 - 44      116    7    252   25:21  3:23    8    231 1:08:19  26.4     7    184   41:41  5:48 
  223     2:15:26 Will Lusby              Aurora        32/34  M35 - 39      162    33   273   28:10  3:46    31   217 1:06:42  27.0     25   168   40:34  5:39 
  224     2:15:27 Stephanie Waterman      Kingston       9/15  W20 - 24      387    11   207   22:16  2:59    10   228 1:08:14  26.4     9    226   44:57  6:15 
  225     2:15:31 Sean Sutcliffe          Edmonton      26/31  M25 - 29      486    27   236   24:13  3:14    28   248 1:09:44  25.8     22   179   41:35  5:47 
  226     2:15:53 Donna Yates             Clarence Cre  12/23  W35 - 39      224    14   190   21:23  2:51    10   192 1:04:28  27.9     18   259   50:04  6:58 
  227     2:16:21 Jennifer Kiwala         Kingston      10/15  W20 - 24      563    10   205   22:13  2:58    12   237 1:08:44  26.2     10   230   45:26  6:19 
  228     2:16:57 Brian Hinton            Markham       33/34  M35 - 39      209    30   199   22:01  2:57    33   243 1:09:11  26.0     33   232   45:46  6:22 
  229     2:17:14 Paul Micsko             Kingston      27/31  M25 - 29      380    22   195   21:49  2:55    24   171 1:02:40  28.7     31   272   52:46  7:20 
  230     2:17:37 Lynne Johnson           Pennelville   26/31  W25 - 29      262    21   172   20:39  2:46    22   216 1:06:34  27.0     29   261   50:25  7:01 
  231     2:18:08 Lisa Davidson           Kingston      18/23  W30 - 34      375    11   177   20:51  2:47    20   254 1:11:08  25.3     17   235   46:10  6:25 
  232     2:18:09 Michelle Cole           Kingston      19/23  W30 - 34       70    3     30   15:07  2:01    21   255 1:12:01  25.0     21   263   51:01  7:06 
  233     2:18:14 Elisabeth Hoffman       Kingston      20/23  W30 - 34       61    14   202   22:08  2:58    11   188 1:04:02  28.1     22   269   52:04  7:14 
  234     2:18:51 Elizabeth Steele        Kingston      13/23  W35 - 39      466    16   227   23:30  3:08    16   240 1:08:55  26.1     15   237   46:26  6:27 
  235     2:18:56 Michael Wechselberger   Warkworth     28/31  M25 - 29      366    25   219   23:05  3:05    29   252 1:10:41  25.5     26   227   45:11  6:17 
  236     2:19:07 Carolyn Bonta           Kingston      27/31  W25 - 29      362    29   244   24:42  3:18    25   234 1:08:35  26.3     26   234   45:51  6:23 
  237     2:19:18 Bob Hill                Toronto       28/33  M40 - 44       34    29   274   28:38  3:49    28   215 1:06:29  27.1     29   217   44:12  6:09 
  238     2:19:45 Patricia Skelly         Oakville      14/23  W35 - 39      425    17   240   24:17  3:15    11   201 1:05:24  27.5     19   260   50:05  6:58 
  239     2:19:56 Rene Lauzon             Point-Claire   3/5   M55 - 59      231    4    228   23:39  3:10    4    233 1:08:33  26.3     2    247   47:45  6:38 
  240     2:19:56 Corrina Tepper          Kingston      28/31  W25 - 29      353    22   201   22:06  2:57    27   247 1:09:41  25.8     27   250   48:09  6:42 
  241     2:20:23 Patricia Massart        Nepean        15/23  W35 - 39      435    20   256   25:47  3:27    17   242 1:08:56  26.1     14   231   45:41  6:21 
  242     2:20:27 Joanne Chen             London        11/15  W20 - 24      414    15   264   26:32  3:33    8    196 1:05:06  27.6     13   252   48:50  6:47 
  243     2:20:28 Carrie McCallum         Kanata        16/23  W35 - 39      315    10   149   20:02  2:41    15   230 1:08:18  26.4     21   270   52:09  7:15 
  244     2:20:54 Virginia Stinson        Kingston       1/3   W50 - 54      307    1    230   23:50  3:11    1    253 1:10:49  25.4     2    236   46:16  6:26 
  245     2:21:08 Lawren Scott Thomson    Toronto       28/32  M30 - 34      432    28   226   23:29  3:08    30   258 1:13:21  24.5     29   219   44:19  6:10 
  246     2:21:15 Karen Heywood           Toronto       17/23  W35 - 39      295    15   192   21:25  2:52    20   263 1:14:29  24.2     13   229   45:23  6:19 
  247     2:21:30 Peter Waldron           Kingston      29/32  M30 - 34       90    23   189   21:22  2:51    29   256 1:12:29  24.8     31   246   47:40  6:38 
  248     2:22:01 Louise Gariepy          Kingston      12/15  W20 - 24      245    14   253   25:36  3:25    13   244 1:09:14  26.0     11   243   47:13  6:34 
  249     2:22:04 Siobhan Coady           Kingston      21/23  W30 - 34      252    19   237   24:14  3:14    17   225 1:08:02  26.5     20   258   49:50  6:56 
  250     2:22:08 Wendy Phillips          Toronto       29/31  W25 - 29      364    31   268   27:11  3:38    29   257 1:13:01  24.7     23   189   41:57  5:50 
  251     2:22:33 Greg Kerr               Tweed          8/9   M50 - 54      151    7    235   24:12  3:14    9    235 1:08:40  26.2     8    257   49:42  6:55 
  252     2:23:16 Annette MacKinnon       Oakville      18/23  W35 - 39      479    18   248   25:00  3:20    18   259 1:13:25  24.5     12   224   44:53  6:14 
  253     2:23:57 Susie Everding          Odessa        19/23  W35 - 39      161    13   166   20:29  2:44    21   267 1:15:52  23.7     17   245   47:37  6:37 
  254     2:24:16 David Caldwell          Ottawa        29/33  M40 - 44       62    20   153   20:10  2:42    29   249 1:09:47  25.8     30   275   54:20  7:33 
  255     2:24:48 Wendy Mitchell          Kingston      13/15  W20 - 24      280    9    187   21:17  2:51    15   264 1:14:49  24.1     12   251   48:42  6:46 
  256     2:24:52 Bernhard Steglich       Kingston       4/5   M55 - 59      525    5    261   26:11  3:30    3    220 1:07:27  26.7     4    267   51:15  7:08 
  257     2:25:06 Christine Morton        Kingston      14/15  W20 - 24      281    13   251   25:20  3:23    11   236 1:08:43  26.2     14   264   51:03  7:06 
  258     2:25:10 Nancy Beard             Toronto        2/3   W50 - 54      360    3    246   24:55  3:20    3    268 1:16:06  23.7     1    216   44:10  6:09 
  259     2:25:12 John Jr Hall            Kingston       5/5   Junior Men    395    5    275   28:39  3:50    5    260 1:13:51  24.4     5    201   42:43  5:56 
  260     2:25:29 Wendy Jennings          Ottawa        20/23  W35 - 39      188    19   254   25:37  3:25    14   227 1:08:02  26.5     20   268   51:51  7:13 
  261     2:26:01 Wayne Gollogly          Gananoque      1/2   M60 & Over    186    1    250   25:11  3:22    1    262 1:14:06  24.3     1    239   46:44  6:30 
  262     2:26:47 Heather DeCloux         Kingston      21/23  W35 - 39      356    21   259   26:03  3:29    22   269 1:16:17  23.6     11   220   44:28  6:11 
  263     2:27:33 Diane Black-Martin      Kingston      22/23  W35 - 39      150    22   267   27:03  3:37    19   261 1:14:03  24.3     16   238   46:28  6:28 
  264     2:27:52 Sharon Lindores         Kingston      22/23  W30 - 34      159    22   277   28:58  3:52    23   271 1:17:28  23.2     13   176   41:27  5:46 
  265     2:28:09 Gillian Kelly           Kingston       3/3   W50 - 54      411    2    231   23:54  3:12    2    266 1:14:56  24.0     3    255   49:20  6:51 
  266     2:28:42 Peter Pain              Elginburg     30/32  M30 - 34      473    13   102   18:15  2:26    32   284 1:31:27  19.7     23   144   39:01  5:26 
  267     2:29:37 Sarah Fortin            Toronto       15/15  W20 - 24      216    12   233   24:03  3:13    14   246 1:09:30  25.9     15   277   56:05  7:48 
  268     2:30:35 Ian Hamilton            Kingston      29/31  M25 - 29      377    29   269   27:21  3:39    31   273 1:17:52  23.1     27   228   45:23  6:19 
  269     2:30:45 Chris Knowlton          Ottawa        30/31  M25 - 29      244    28   258   26:01  3:29    30   272 1:17:43  23.2     28   241   47:01  6:32 
  270     2:31:22 David Harkey            Toronto       31/31  M25 - 29      373    31   285   34:44  4:38    26   202 1:05:27  27.5     30   266   51:12  7:07 
  271     2:33:59 Robert McLean           Kingston      31/32  M30 - 34      232    32   287   42:46  5:43    25   190 1:04:07  28.1     30   242   47:07  6:33 
  272     2:34:16 Mark Chandler           Toronto       30/33  M40 - 44      105    27   245   24:55  3:20    32   279 1:26:09  20.9     27   207   43:13  6:01 
  273     2:37:43 Peter Vangestel         Erinsville     2/2   M60 & Over    452    2    283   32:28  4:20    2    274 1:17:53  23.1     2    244   47:23  6:35 
  274     2:39:50 Kathy Rice              Roslin         2/3   W55 - 59      393    2    282   32:16  4:19    2    270 1:16:46  23.5     2    262   50:49  7:04 
  275     2:40:07 John-Paul Abelshauser   Warkworth     32/32  M30 - 34      363    27   218   22:59  3:04    31   277 1:19:37  22.6     32   278   57:32  8:00 
  276     2:42:22 Meriel Taylor           Kingston      23/23  W30 - 34      500    23   284   33:19  4:27    22   265 1:14:52  24.0     23   273   54:11  7:32 
  277     2:49:00 Erika Everding          Odessa         1/1   W60 & Over    170    1    272   27:48  3:43    1    280 1:26:09  20.9     1    276   55:03  7:39 
  278     2:49:55 Mike Porter             Kingston      34/34  M35 - 39      442    34   279   29:01  3:53    34   282 1:26:35  20.8     34   274   54:19  7:33 
  279     2:51:03 Sharon Crooke-Dowsley   Kingston       4/4   W45 - 49      136    4    260   26:06  3:29    4    281 1:26:29  20.8     4    279   58:28  8:08 
  280     2:52:27 Cynthia Bird            Kinburn       23/23  W35 - 39      282    23   281   31:05  4:09    23   276 1:18:44  22.9     23   282 1:02:39  8:43 
  281     2:57:08 Andrea Schneider        Kingston      30/31  W25 - 29      334    30   255   25:38  3:26    30   283 1:29:12  20.2     30   281 1:02:18  8:40 
  282     3:02:27 David Amm               Kingston      31/33  M40 - 44      303    33   286   41:03  5:29    30   275 1:18:43  22.9     31   283 1:02:42  8:43 
  283     3:17:01 Ruth Crafts             Kingston       3/3   W55 - 59       51    3    288   43:30  5:48    3    285 1:33:28  19.3     3    280 1:00:04  8:21 
  284 DNF         Bob Reynolds            Belleville     9/9   M50 - 54      211    8    239   24:17  3:15    1     53   55:11  32.6                            
  285             Tim Sugrue              Kingston      32/33  M40 - 44      462    32   280   29:13  3:54    31   278 1:20:39  22.3                            
  286 DNF         Gord Hunter             Nepean         5/5   M55 - 59      340    2    124   18:50  2:31                                                      
  287 DNF         Trevor Reid             Ottawa        33/33  M40 - 44      255    30   276   28:43  3:50                                                      
  288 DNF         Victoria MacDermid      Kingston      31/31  W25 - 29      333    19   126   18:57  2:32